MAPA DE AEROPUERTO

INFORMACIÓN METAR y TAF

METAR FOR GCFV
ADDS - METARS form results

(1057 UTC 07 May 2021)
Data provider http://aviationweather.gov/metar/data/
 
METAR text: GCFV 071030Z 03013KT 010V070 9999 OVC025 21/15 Q1019
Conditions at: GCFV (FUERTEVENTURA AR, ES) observed 1030 UTC 07 May 2021
Temperature: 21.0°C (70°F)
Dewpoint: 15.0°C (59°F) [RH = 69%]
Pressure (altimeter): 30.09 inches Hg (1019.0 mb)
Winds: from the NNE (30 degrees) at 15 MPH (13 knots; 6.7 m/s)
Visibility: 6 or more miles (10+ km)
Ceiling: 2500 feet AGL
Clouds: overcast cloud deck at 2500 feet AGL
Weather: no significant weather observed at this time

METAR text: GCFV 071000Z 03014KT 9999 OVC025 21/15 Q1019
Conditions at: GCFV (FUERTEVENTURA AR, ES) observed 1000 UTC 07 May 2021
Temperature: 21.0°C (70°F)
Dewpoint: 15.0°C (59°F) [RH = 69%]
Pressure (altimeter): 30.09 inches Hg (1019.0 mb)
Winds: from the NNE (30 degrees) at 16 MPH (14 knots; 7.2 m/s)
Visibility: 6 or more miles (10+ km)
Ceiling: 2500 feet AGL
Clouds: overcast cloud deck at 2500 feet AGL
Weather: no significant weather observed at this time

Forecast for: GCFV (FUERTEVENTURA AR, ES)
Text: TAF GCFV 070800Z 0709/0809 05013KT 9999 FEW030 TX25/0714Z TN18/0806Z
Forecast period: 0900 to 1900 UTC 07 May 2021
Forecast type: FROM: standard forecast or significant change
Winds: from the NE (50 degrees) at 15 MPH (13 knots; 6.7 m/s)
Visibility: 6 or more miles (10+ km)
Ceiling: at least 12,000 feet AGL
Clouds: few clouds at 3000 feet AGL
Weather: no significant weather forecast for this period
Text: BECMG 0719/0721 35009KT
Forecast period: 1900 UTC 07 May 2021 to 0900 UTC 08 May 2021
Forecast type: BECOMING: Conditions expected to become as follows by 2100 UTC 07 May 2021
Winds: from the N (350 degrees) at 10 MPH (9 knots; 4.6 m/s)
Visibility: 6 or more miles (10+ km)
Ceiling: at least 12,000 feet AGL
Clouds: few clouds at 3000 feet AGL
Weather: no significant weather forecast for this period